Aérodrome :
LOGIN :

S'inscrire | Disclaimer

   EN    FR    IT 

 










Légende :    VFR   VFR Marginal   IFR   IFR Intensif   IFR Très Intensif
Visi : 
Plafond : 
>= 8 km
>= 3000ft
5 à 8 km
1000 à 3000 ft
1500m à 5 km
500 à 1000 ft
800 à 1500m
200 à 500 ft
< 800m
< 200 ft
Symboles :   Orages  Brouillard  Fortes neiges  Fortes précipitations  Vent > 20 kt
SIGMETs :   Divers  Orages  Givrage  Turbulence  Onde Orograph.  Cendres Volcan.







- Altitude de l'aérodrome : 16 ft
- Code IATA : SDR


LEXJ - Santander Cantabria

DERNIER METAR :
  • 180800Z VRB02KT CAVOK 09/09 Q1007

METARs EXPIRÉS :
  • 180730Z 17004KT 9000 NSC 08/08 Q1007
  • 180700Z VRB01KT 8000 NSC 08/08 Q1007
  • 180630Z 18003KT 140V200 8000 NSC 08/08 Q1007
  • 180600Z 17004KT 8000 NSC 08/08 Q1007
  • 180530Z 00000KT 8000 NSC 08/08 Q1007

TAF TAF LEXJ
Valide du 18 à 03h jusqu'au 19 à 03h UTC


180200Z 1803/1903 VRB04KT CAVOK TX17/1813Z TN09/1806Z
PROB30
TEMPO 1803/1807 3000 BR
BECMG 1809/1812 09012KT
TEMPO 1812/1821 SCT030TCU
PROB30
TEMPO 1821/1824 RA
Pas de NOTAMs connus pour ce terrain.
2 SIGMETs publiés pour la FIR Madrid (LECM) :
 
Orages noyés dans la masse
LECM SIGMET 4 VALID 180800/181000 LEVA
LECM MADRID FIR/UIR EMBD TS OBS AT 0756Z S OF LINE N3810 W00733 - N3657 W00538 TOP FL300 MOV NE NC=
Orages noyés dans la masse
LECM SIGMET 3 VALID 180600/180800 LEVA
LECM MADRID FIR/UIR EMBD TS FCST W OF LINE N3807 W00624 - N3551 W00556 TOP FL280 MOV NE NC=



MET'MAP, la Météo Aéronautique d'un coup d'oeil ! - Copyright ORBIFLY Décembre 2007 - Disclaimer

ORBIFLY MET'MAP TEAM :

Programmation & Développement : Alexandra Zaïnal
Conception & Développement : Baudouin d'Aumeries
Co-Programmation & Développement : Marc-Olivier Méhu
Soutien technique & logistique : Manuel Goepfert

Contact : metmap@orbifly.com




SOURCES & CREDITS :

   NOAA